sensor_id;sensor_type;location;lat;lon;timestamp;pressure;altitude;pressure_sealevel;temperature;humidity
70103;BME280;57470;50.034;15.256;2023-05-21T00:02:15;99616.88;;;15.99;95.24
70103;BME280;57470;50.034;15.256;2023-05-21T00:04:45;99616.38;;;16.15;94.01
70103;BME280;57470;50.034;15.256;2023-05-21T00:07:11;99611.56;;;16.09;95.18
70103;BME280;57470;50.034;15.256;2023-05-21T00:09:37;99616.97;;;16.19;94.07
70103;BME280;57470;50.034;15.256;2023-05-21T00:12:05;99613.94;;;16.12;93.19
70103;BME280;57470;50.034;15.256;2023-05-21T00:14:30;99609.97;;;15.97;94.13
70103;BME280;57470;50.034;15.256;2023-05-21T00:16:56;99610.00;;;16.06;93.05
70103;BME280;57470;50.034;15.256;2023-05-21T00:19:21;99610.50;;;15.91;93.15
70103;BME280;57470;50.034;15.256;2023-05-21T00:21:46;99606.47;;;15.75;94.08
70103;BME280;57470;50.034;15.256;2023-05-21T00:24:12;99603.97;;;15.84;92.77
70103;BME280;57470;50.034;15.256;2023-05-21T00:26:37;99602.13;;;15.74;91.91
70103;BME280;57470;50.034;15.256;2023-05-21T00:29:03;99600.47;;;15.83;92.09
70103;BME280;57470;50.034;15.256;2023-05-21T00:31:29;99603.44;;;15.59;93.02
70103;BME280;57470;50.034;15.256;2023-05-21T00:33:56;99600.41;;;15.73;92.26
70103;BME280;57470;50.034;15.256;2023-05-21T00:36:21;99599.69;;;15.51;92.69
70103;BME280;57470;50.034;15.256;2023-05-21T00:38:49;99599.56;;;15.52;93.13
70103;BME280;57470;50.034;15.256;2023-05-21T00:41:14;99601.16;;;15.55;92.52
70103;BME280;57470;50.034;15.256;2023-05-21T00:43:41;99594.63;;;15.48;92.17
70103;BME280;57470;50.034;15.256;2023-05-21T00:46:07;99602.19;;;15.43;92.50
70103;BME280;57470;50.034;15.256;2023-05-21T00:48:36;99602.50;;;15.49;92.38
70103;BME280;57470;50.034;15.256;2023-05-21T00:51:02;99600.81;;;15.48;92.32
70103;BME280;57470;50.034;15.256;2023-05-21T00:53:28;99599.25;;;15.46;92.15
70103;BME280;57470;50.034;15.256;2023-05-21T00:55:54;99595.72;;;15.45;92.37
70103;BME280;57470;50.034;15.256;2023-05-21T00:58:20;99590.19;;;15.37;92.31
70103;BME280;57470;50.034;15.256;2023-05-21T01:00:45;99606.53;;;14.92;96.50
70103;BME280;57470;50.034;15.256;2023-05-21T01:03:11;99598.94;;;15.18;94.67
70103;BME280;57470;50.034;15.256;2023-05-21T01:05:38;99600.31;;;14.92;95.87
70103;BME280;57470;50.034;15.256;2023-05-21T01:08:03;99600.81;;;14.65;98.36
70103;BME280;57470;50.034;15.256;2023-05-21T01:10:29;99605.63;;;14.71;99.77
70103;BME280;57470;50.034;15.256;2023-05-21T01:12:57;99596.13;;;14.99;96.16
70103;BME280;57470;50.034;15.256;2023-05-21T01:15:23;99595.41;;;14.97;95.48
70103;BME280;57470;50.034;15.256;2023-05-21T01:17:50;99593.00;;;14.94;95.18
70103;BME280;57470;50.034;15.256;2023-05-21T01:20:16;99592.53;;;14.89;95.41
70103;BME280;57470;50.034;15.256;2023-05-21T01:23:01;99590.38;;;15.03;94.52
70103;BME280;57470;50.034;15.256;2023-05-21T01:25:27;99596.97;;;14.99;94.23
70103;BME280;57470;50.034;15.256;2023-05-21T01:27:52;99594.44;;;14.98;94.46
70103;BME280;57470;50.034;15.256;2023-05-21T01:30:20;99597.97;;;14.98;93.70
70103;BME280;57470;50.034;15.256;2023-05-21T01:32:55;99589.41;;;14.84;94.07
70103;BME280;57470;50.034;15.256;2023-05-21T01:43:17;99581.84;;;14.57;96.20
70103;BME280;57470;50.034;15.256;2023-05-21T01:45:44;99578.97;;;14.49;97.11
70103;BME280;57470;50.034;15.256;2023-05-21T01:48:11;99579.88;;;14.59;95.43
70103;BME280;57470;50.034;15.256;2023-05-21T01:50:38;99580.63;;;14.50;94.91
70103;BME280;57470;50.034;15.256;2023-05-21T01:53:04;99575.91;;;14.53;95.06
70103;BME280;57470;50.034;15.256;2023-05-21T01:55:31;99575.06;;;14.42;94.84
70103;BME280;57470;50.034;15.256;2023-05-21T01:57:57;99568.63;;;14.44;94.65
70103;BME280;57470;50.034;15.256;2023-05-21T02:00:24;99569.59;;;14.43;94.30
70103;BME280;57470;50.034;15.256;2023-05-21T02:02:52;99574.09;;;14.43;94.75
70103;BME280;57470;50.034;15.256;2023-05-21T02:05:18;99567.19;;;14.40;94.36
70103;BME280;57470;50.034;15.256;2023-05-21T02:07:44;99567.94;;;14.31;94.22
70103;BME280;57470;50.034;15.256;2023-05-21T02:10:12;99556.16;;;14.22;94.57
70103;BME280;57470;50.034;15.256;2023-05-21T02:12:39;99557.72;;;14.25;95.29
70103;BME280;57470;50.034;15.256;2023-05-21T02:15:06;99563.78;;;14.27;95.55
70103;BME280;57470;50.034;15.256;2023-05-21T02:17:33;99573.88;;;14.23;95.21
70103;BME280;57470;50.034;15.256;2023-05-21T02:20:01;99572.09;;;14.13;95.31
70103;BME280;57470;50.034;15.256;2023-05-21T02:22:46;99568.09;;;14.07;95.37
70103;BME280;57470;50.034;15.256;2023-05-21T02:25:17;99565.91;;;14.01;94.96
70103;BME280;57470;50.034;15.256;2023-05-21T02:27:48;99570.03;;;14.05;95.39
70103;BME280;57470;50.034;15.256;2023-05-21T02:30:18;99571.03;;;14.04;95.13
70103;BME280;57470;50.034;15.256;2023-05-21T02:32:46;99557.28;;;13.98;95.55
70103;BME280;57470;50.034;15.256;2023-05-21T02:35:13;99564.59;;;13.96;94.83
70103;BME280;57470;50.034;15.256;2023-05-21T02:37:41;99563.25;;;14.01;94.47
70103;BME280;57470;50.034;15.256;2023-05-21T02:40:09;99579.88;;;14.05;94.29
70103;BME280;57470;50.034;15.256;2023-05-21T02:42:38;99565.44;;;13.96;94.02
70103;BME280;57470;50.034;15.256;2023-05-21T02:45:11;99566.16;;;13.87;94.43
70103;BME280;57470;50.034;15.256;2023-05-21T02:47:39;99568.03;;;13.86;94.21
70103;BME280;57470;50.034;15.256;2023-05-21T02:50:07;99562.41;;;13.78;94.64
70103;BME280;57470;50.034;15.256;2023-05-21T02:52:35;99555.63;;;13.85;94.17
70103;BME280;57470;50.034;15.256;2023-05-21T02:55:02;99556.22;;;13.78;94.19
70103;BME280;57470;50.034;15.256;2023-05-21T02:57:29;99559.63;;;13.80;93.88
70103;BME280;57470;50.034;15.256;2023-05-21T02:59:57;99559.63;;;13.80;93.87
70103;BME280;57470;50.034;15.256;2023-05-21T03:02:24;99557.56;;;13.72;93.96
70103;BME280;57470;50.034;15.256;2023-05-21T03:04:51;99548.84;;;13.59;94.66
70103;BME280;57470;50.034;15.256;2023-05-21T03:07:18;99554.03;;;13.61;94.72
70103;BME280;57470;50.034;15.256;2023-05-21T03:09:44;99550.50;;;13.60;94.37
70103;BME280;57470;50.034;15.256;2023-05-21T03:12:10;99559.66;;;13.58;94.47
70103;BME280;57470;50.034;15.256;2023-05-21T03:14:36;99560.84;;;13.65;94.68
70103;BME280;57470;50.034;15.256;2023-05-21T03:17:02;99568.53;;;13.58;94.40
70103;BME280;57470;50.034;15.256;2023-05-21T03:19:32;99552.59;;;13.57;95.04
70103;BME280;57470;50.034;15.256;2023-05-21T03:22:00;99559.66;;;13.58;94.70
70103;BME280;57470;50.034;15.256;2023-05-21T03:24:27;99557.72;;;13.60;94.60
70103;BME280;57470;50.034;15.256;2023-05-21T03:26:54;99564.72;;;13.61;95.77
70103;BME280;57470;50.034;15.256;2023-05-21T03:29:19;99557.94;;;13.57;96.30
70103;BME280;57470;50.034;15.256;2023-05-21T03:31:45;99562.31;;;13.58;95.87
70103;BME280;57470;50.034;15.256;2023-05-21T03:34:10;99563.19;;;13.58;95.45
70103;BME280;57470;50.034;15.256;2023-05-21T03:36:36;99562.31;;;13.58;95.46
70103;BME280;57470;50.034;15.256;2023-05-21T03:39:01;99562.56;;;13.66;96.32
70103;BME280;57470;50.034;15.256;2023-05-21T03:41:26;99559.66;;;13.58;95.91
70103;BME280;57470;50.034;15.256;2023-05-21T03:43:52;99560.84;;;13.65;95.09
70103;BME280;57470;50.034;15.256;2023-05-21T03:46:17;99562.56;;;13.66;95.85
70103;BME280;57470;50.034;15.256;2023-05-21T03:48:43;99571.53;;;13.20;98.50
70103;BME280;57470;50.034;15.256;2023-05-21T03:51:08;99582.44;;;13.17;100.00
70103;BME280;57470;50.034;15.256;2023-05-21T03:53:34;99575.56;;;13.59;99.50
70103;BME280;57470;50.034;15.256;2023-05-21T03:55:59;99584.91;;;13.76;98.48
70103;BME280;57470;50.034;15.256;2023-05-21T03:58:25;99578.09;;;13.83;97.63
70103;BME280;57470;50.034;15.256;2023-05-21T04:00:50;99577.88;;;13.86;97.19
70103;BME280;57470;50.034;15.256;2023-05-21T04:03:16;99579.06;;;13.93;97.32
70103;BME280;57470;50.034;15.256;2023-05-21T04:05:42;99576.34;;;14.15;96.92
70103;BME280;57470;50.034;15.256;2023-05-21T04:08:07;99572.44;;;14.31;96.28
70103;BME280;57470;50.034;15.256;2023-05-21T04:10:33;99575.28;;;14.50;96.21
70103;BME280;57470;50.034;15.256;2023-05-21T04:12:58;99576.94;;;14.62;95.85
70103;BME280;57470;50.034;15.256;2023-05-21T04:15:24;99577.84;;;14.83;95.91
70103;BME280;57470;50.034;15.256;2023-05-21T04:17:49;99571.72;;;14.92;95.53
70103;BME280;57470;50.034;15.256;2023-05-21T04:20:16;99572.41;;;15.15;94.99
70103;BME280;57470;50.034;15.256;2023-05-21T04:22:42;99569.47;;;15.18;94.21
70103;BME280;57470;50.034;15.256;2023-05-21T04:25:07;99577.69;;;15.47;94.31
70103;BME280;57470;50.034;15.256;2023-05-21T04:27:34;99566.38;;;15.64;94.07
70103;BME280;57470;50.034;15.256;2023-05-21T04:29:59;99563.22;;;15.59;93.77
70103;BME280;57470;50.034;15.256;2023-05-21T04:32:25;99572.53;;;15.95;93.42
70103;BME280;57470;50.034;15.256;2023-05-21T04:34:52;99566.59;;;15.92;92.84
70103;BME280;57470;50.034;15.256;2023-05-21T04:37:18;99570.28;;;15.91;93.45
70103;BME280;57470;50.034;15.256;2023-05-21T04:39:44;99579.03;;;16.02;93.25
70103;BME280;57470;50.034;15.256;2023-05-21T04:42:09;99575.38;;;16.03;93.36
70103;BME280;57470;50.034;15.256;2023-05-21T04:44:35;99569.16;;;16.03;93.35
70103;BME280;57470;50.034;15.256;2023-05-21T04:47:02;99570.47;;;16.08;94.01
70103;BME280;57470;50.034;15.256;2023-05-21T04:49:27;99564.16;;;15.79;96.57
70103;BME280;57470;50.034;15.256;2023-05-21T04:51:52;99563.44;;;15.26;98.84
70103;BME280;57470;50.034;15.256;2023-05-21T04:54:18;99569.38;;;15.81;98.14
70103;BME280;57470;50.034;15.256;2023-05-21T04:56:43;99557.91;;;15.69;97.50
70103;BME280;57470;50.034;15.256;2023-05-21T04:59:08;99562.66;;;15.35;100.00
70103;BME280;57470;50.034;15.256;2023-05-21T05:01:34;99562.44;;;15.78;99.89
70103;BME280;57470;50.034;15.256;2023-05-21T05:04:02;99555.78;;;16.22;97.61
70103;BME280;57470;50.034;15.256;2023-05-21T05:06:28;99557.13;;;15.88;98.56
70103;BME280;57470;50.034;15.256;2023-05-21T05:08:53;99557.72;;;15.40;100.00
70103;BME280;57470;50.034;15.256;2023-05-21T05:11:19;99562.13;;;15.41;100.00
70103;BME280;57470;50.034;15.256;2023-05-21T05:13:44;99559.13;;;15.95;100.00
70103;BME280;57470;50.034;15.256;2023-05-21T05:16:10;99556.69;;;15.83;100.00
70103;BME280;57470;50.034;15.256;2023-05-21T05:18:36;99559.25;;;15.94;100.00
70103;BME280;57470;50.034;15.256;2023-05-21T05:21:02;99551.75;;;15.88;100.00
70103;BME280;57470;50.034;15.256;2023-05-21T05:23:27;99549.97;;;16.07;100.00
70103;BME280;57470;50.034;15.256;2023-05-21T05:25:53;99556.56;;;16.72;99.91
70103;BME280;57470;50.034;15.256;2023-05-21T05:28:18;99552.06;;;16.63;99.18
70103;BME280;57470;50.034;15.256;2023-05-21T05:30:44;99552.84;;;17.02;98.92
70103;BME280;57470;50.034;15.256;2023-05-21T05:33:09;99553.63;;;17.41;96.46
70103;BME280;57470;50.034;15.256;2023-05-21T05:35:36;99556.41;;;16.83;97.73
70103;BME280;57470;50.034;15.256;2023-05-21T05:38:01;99555.16;;;17.44;96.18
70103;BME280;57470;50.034;15.256;2023-05-21T05:40:26;99553.38;;;17.35;94.65
70103;BME280;57470;50.034;15.256;2023-05-21T05:42:52;99535.31;;;17.45;94.67
70103;BME280;57470;50.034;15.256;2023-05-21T05:45:18;99537.88;;;17.83;92.37
70103;BME280;57470;50.034;15.256;2023-05-21T05:47:44;99545.69;;;17.86;92.85
70103;BME280;57470;50.034;15.256;2023-05-21T05:50:09;99544.72;;;18.05;91.48
70103;BME280;57470;50.034;15.256;2023-05-21T05:52:35;99546.06;;;17.91;92.53
70103;BME280;57470;50.034;15.256;2023-05-21T05:55:00;99542.41;;;18.10;91.68
70103;BME280;57470;50.034;15.256;2023-05-21T05:57:26;99540.91;;;17.80;93.81
70103;BME280;57470;50.034;15.256;2023-05-21T05:59:51;99544.69;;;17.87;92.83
70103;BME280;57470;50.034;15.256;2023-05-21T06:02:17;99546.19;;;17.90;92.59
70103;BME280;57470;50.034;15.256;2023-05-21T06:04:42;99535.41;;;18.17;91.03
70103;BME280;57470;50.034;15.256;2023-05-21T06:07:08;99542.03;;;18.05;92.09
70103;BME280;57470;50.034;15.256;2023-05-21T06:09:33;99537.44;;;18.15;91.23
70103;BME280;57470;50.034;15.256;2023-05-21T06:11:59;99535.19;;;17.83;92.44
70103;BME280;57470;50.034;15.256;2023-05-21T06:14:25;99536.44;;;18.16;92.35
70103;BME280;57470;50.034;15.256;2023-05-21T06:16:50;99538.88;;;17.82;94.15
70103;BME280;57470;50.034;15.256;2023-05-21T06:19:16;99541.09;;;17.96;94.85
70103;BME280;57470;50.034;15.256;2023-05-21T06:21:41;99543.22;;;18.38;92.12
70103;BME280;57470;50.034;15.256;2023-05-21T06:24:06;99535.84;;;18.40;92.23
70103;BME280;57470;50.034;15.256;2023-05-21T06:26:32;99527.16;;;18.64;90.88
70103;BME280;57470;50.034;15.256;2023-05-21T06:28:57;99531.69;;;18.81;90.20
70103;BME280;57470;50.034;15.256;2023-05-21T06:31:23;99535.00;;;18.75;91.11
70103;BME280;57470;50.034;15.256;2023-05-21T06:33:48;99535.06;;;19.27;89.60
70103;BME280;57470;50.034;15.256;2023-05-21T06:36:14;99540.13;;;19.47;88.38
70103;BME280;57470;50.034;15.256;2023-05-21T06:38:40;99536.06;;;19.52;87.94
70103;BME280;57470;50.034;15.256;2023-05-21T06:41:06;99540.88;;;19.66;88.12
70103;BME280;57470;50.034;15.256;2023-05-21T06:43:32;99529.03;;;19.59;87.17
70103;BME280;57470;50.034;15.256;2023-05-21T06:45:57;99538.13;;;19.32;89.46
70103;BME280;57470;50.034;15.256;2023-05-21T06:48:23;99528.25;;;19.40;88.40
70103;BME280;57470;50.034;15.256;2023-05-21T06:50:48;99533.06;;;19.29;89.76
70103;BME280;57470;50.034;15.256;2023-05-21T06:53:13;99529.34;;;19.56;90.13
70103;BME280;57470;50.034;15.256;2023-05-21T06:55:40;99529.19;;;19.91;86.69
70103;BME280;57470;50.034;15.256;2023-05-21T06:58:09;99531.41;;;19.62;87.94
70103;BME280;57470;50.034;15.256;2023-05-21T07:00:35;99536.00;;;20.11;86.98
70103;BME280;57470;50.034;15.256;2023-05-21T07:03:00;99544.94;;;20.04;86.71
70103;BME280;57470;50.034;15.256;2023-05-21T07:05:25;99540.47;;;20.37;85.55
70103;BME280;57470;50.034;15.256;2023-05-21T07:07:51;99537.72;;;20.20;85.96
70103;BME280;57470;50.034;15.256;2023-05-21T07:10:16;99536.31;;;20.08;86.78
70103;BME280;57470;50.034;15.256;2023-05-21T07:12:41;99533.53;;;19.84;88.71
70103;BME280;57470;50.034;15.256;2023-05-21T07:15:07;99539.16;;;20.49;85.44
70103;BME280;57470;50.034;15.256;2023-05-21T07:17:33;99538.81;;;20.52;85.85
70103;BME280;57470;50.034;15.256;2023-05-21T07:19:58;99544.59;;;20.97;82.98
70103;BME280;57470;50.034;15.256;2023-05-21T07:22:24;99533.03;;;20.31;87.32
70103;BME280;57470;50.034;15.256;2023-05-21T07:24:49;99531.22;;;20.96;84.03
70103;BME280;57470;50.034;15.256;2023-05-21T07:27:15;99529.69;;;20.85;82.54
70103;BME280;57470;50.034;15.256;2023-05-21T07:29:40;99529.19;;;21.14;83.84
70103;BME280;57470;50.034;15.256;2023-05-21T07:32:05;99531.38;;;21.43;81.48
70103;BME280;57470;50.034;15.256;2023-05-21T07:34:31;99515.72;;;21.69;81.21
70103;BME280;57470;50.034;15.256;2023-05-21T07:36:57;99522.19;;;21.52;83.18
70103;BME280;57470;50.034;15.256;2023-05-21T07:39:22;99516.66;;;21.85;80.66
70103;BME280;57470;50.034;15.256;2023-05-21T07:41:47;99526.50;;;21.06;81.87
70103;BME280;57470;50.034;15.256;2023-05-21T07:44:13;99525.19;;;21.65;79.18
70103;BME280;57470;50.034;15.256;2023-05-21T07:46:38;99519.44;;;21.68;81.59
70103;BME280;57470;50.034;15.256;2023-05-21T07:49:04;99527.47;;;22.01;78.53
70103;BME280;57470;50.034;15.256;2023-05-21T07:51:29;99528.22;;;21.70;80.20
70103;BME280;57470;50.034;15.256;2023-05-21T07:53:55;99515.25;;;21.97;77.44
70103;BME280;57470;50.034;15.256;2023-05-21T07:56:21;99516.09;;;22.05;79.81
70103;BME280;57470;50.034;15.256;2023-05-21T07:58:47;99517.94;;;22.05;78.80
70103;BME280;57470;50.034;15.256;2023-05-21T08:01:12;99517.06;;;22.13;79.39
70103;BME280;57470;50.034;15.256;2023-05-21T08:03:37;99519.81;;;22.58;77.77
70103;BME280;57470;50.034;15.256;2023-05-21T08:06:03;99519.47;;;22.61;76.21
70103;BME280;57470;50.034;15.256;2023-05-21T08:08:28;99515.91;;;22.83;75.37
70103;BME280;57470;50.034;15.256;2023-05-21T08:10:54;99509.56;;;22.68;77.84
70103;BME280;57470;50.034;15.256;2023-05-21T08:13:20;99509.00;;;22.81;76.82
70103;BME280;57470;50.034;15.256;2023-05-21T08:15:46;99499.97;;;22.12;77.06
70103;BME280;57470;50.034;15.256;2023-05-21T08:18:11;99504.16;;;22.91;76.47
70103;BME280;57470;50.034;15.256;2023-05-21T08:20:37;99504.16;;;22.68;78.39
70103;BME280;57470;50.034;15.256;2023-05-21T08:23:02;99506.59;;;22.86;76.95
70103;BME280;57470;50.034;15.256;2023-05-21T08:25:28;99512.34;;;22.83;74.41
70103;BME280;57470;50.034;15.256;2023-05-21T08:27:54;99511.06;;;23.16;75.95
70103;BME280;57470;50.034;15.256;2023-05-21T08:30:19;99509.94;;;23.26;74.67
70103;BME280;57470;50.034;15.256;2023-05-21T08:32:46;99505.22;;;23.05;75.09
70103;BME280;57470;50.034;15.256;2023-05-21T08:35:13;99506.84;;;23.29;73.46
70103;BME280;57470;50.034;15.256;2023-05-21T08:37:38;99509.19;;;23.17;73.85
70103;BME280;57470;50.034;15.256;2023-05-21T08:40:04;99506.03;;;23.72;72.38
70103;BME280;57470;50.034;15.256;2023-05-21T08:42:46;99505.63;;;23.46;74.94
70103;BME280;57470;50.034;15.256;2023-05-21T08:45:13;99499.94;;;23.85;73.84
70103;BME280;57470;50.034;15.256;2023-05-21T08:47:43;99496.34;;;23.99;72.28
70103;BME280;57470;50.034;15.256;2023-05-21T08:50:16;99497.97;;;23.93;73.88
70103;BME280;57470;50.034;15.256;2023-05-21T08:52:43;99494.44;;;24.29;71.86
70103;BME280;57470;50.034;15.256;2023-05-21T08:55:09;99495.31;;;24.00;70.79
70103;BME280;57470;50.034;15.256;2023-05-21T08:57:35;99494.34;;;24.08;72.32
70103;BME280;57470;50.034;15.256;2023-05-21T09:00:02;99494.97;;;24.39;71.01
70103;BME280;57470;50.034;15.256;2023-05-21T09:02:32;99489.16;;;24.06;71.06
70103;BME280;57470;50.034;15.256;2023-05-21T09:04:58;99485.19;;;24.23;69.93
70103;BME280;57470;50.034;15.256;2023-05-21T09:07:27;99492.00;;;24.55;70.61
70103;BME280;57470;50.034;15.256;2023-05-21T09:09:56;99489.09;;;24.78;71.63
70103;BME280;57470;50.034;15.256;2023-05-21T09:12:23;99492.59;;;24.51;71.42
70103;BME280;57470;50.034;15.256;2023-05-21T09:14:50;99488.09;;;24.64;70.98
70103;BME280;57470;50.034;15.256;2023-05-21T09:17:15;99484.22;;;24.52;71.26
70103;BME280;57470;50.034;15.256;2023-05-21T09:20:06;99485.91;;;24.75;68.19
70103;BME280;57470;50.034;15.256;2023-05-21T09:22:43;99495.19;;;25.08;68.55
70103;BME280;57470;50.034;15.256;2023-05-21T09:25:11;99493.84;;;24.97;67.66
70103;BME280;57470;50.034;15.256;2023-05-21T09:27:37;99487.97;;;24.73;67.88
70103;BME280;57470;50.034;15.256;2023-05-21T09:30:08;99487.16;;;24.79;68.76
70103;BME280;57470;50.034;15.256;2023-05-21T09:32:34;99490.75;;;24.37;71.45
70103;BME280;57470;50.034;15.256;2023-05-21T09:35:13;99499.22;;;25.12;68.79
70103;BME280;57470;50.034;15.256;2023-05-21T09:37:42;99487.91;;;25.43;68.36
70103;BME280;57470;50.034;15.256;2023-05-21T09:40:13;99495.31;;;25.21;69.64
70103;BME280;57470;50.034;15.256;2023-05-21T09:42:40;99480.34;;;25.38;68.21
70103;BME280;57470;50.034;15.256;2023-05-21T09:45:09;99481.88;;;25.82;67.30
70103;BME280;57470;50.034;15.256;2023-05-21T09:47:41;99483.31;;;25.78;70.79
70103;BME280;57470;50.034;15.256;2023-05-21T09:50:11;99476.91;;;25.99;67.15
70103;BME280;57470;50.034;15.256;2023-05-21T09:52:37;99470.03;;;26.23;68.18
70103;BME280;57470;50.034;15.256;2023-05-21T09:55:05;99480.66;;;25.91;67.16
70103;BME280;57470;50.034;15.256;2023-05-21T09:57:30;99476.53;;;26.08;66.26
70103;BME280;57470;50.034;15.256;2023-05-21T09:59:56;99470.78;;;26.44;66.65
70103;BME280;57470;50.034;15.256;2023-05-21T10:02:23;99470.56;;;26.59;65.32
70103;BME280;57470;50.034;15.256;2023-05-21T10:04:49;99473.94;;;26.61;63.06
70103;BME280;57470;50.034;15.256;2023-05-21T10:07:19;99464.31;;;26.04;66.72
70103;BME280;57470;50.034;15.256;2023-05-21T10:09:56;99460.94;;;25.89;69.51
70103;BME280;57470;50.034;15.256;2023-05-21T10:12:23;99465.41;;;26.10;64.64
70103;BME280;57470;50.034;15.256;2023-05-21T10:14:59;99461.09;;;26.29;65.27
70103;BME280;57470;50.034;15.256;2023-05-21T10:17:31;99465.97;;;25.86;65.81
70103;BME280;57470;50.034;15.256;2023-05-21T10:19:58;99457.09;;;25.77;65.59
70103;BME280;57470;50.034;15.256;2023-05-21T10:22:24;99458.88;;;26.04;65.45
70103;BME280;57470;50.034;15.256;2023-05-21T10:24:51;99461.75;;;25.83;64.09
70103;BME280;57470;50.034;15.256;2023-05-21T10:27:17;99455.38;;;25.63;66.22
70103;BME280;57470;50.034;15.256;2023-05-21T10:29:43;99447.44;;;25.68;65.50
70103;BME280;57470;50.034;15.256;2023-05-21T10:32:12;99445.69;;;26.08;63.71
70103;BME280;57470;50.034;15.256;2023-05-21T10:34:39;99444.56;;;25.89;62.59
70103;BME280;57470;50.034;15.256;2023-05-21T10:37:06;99448.63;;;26.06;64.28
70103;BME280;57470;50.034;15.256;2023-05-21T10:39:33;99447.81;;;26.19;62.82
70103;BME280;57470;50.034;15.256;2023-05-21T10:42:15;99439.31;;;26.62;61.99
70103;BME280;57470;50.034;15.256;2023-05-21T10:53:19;99426.50;;;26.75;62.58
70103;BME280;57470;50.034;15.256;2023-05-21T11:01:16;99427.13;;;26.90;60.41
70103;BME280;57470;50.034;15.256;2023-05-21T11:03:45;99419.72;;;27.44;57.89
70103;BME280;57470;50.034;15.256;2023-05-21T11:06:21;99419.03;;;27.61;55.94
70103;BME280;57470;50.034;15.256;2023-05-21T11:08:48;99418.16;;;28.12;57.85
70103;BME280;57470;50.034;15.256;2023-05-21T11:11:50;99420.69;;;27.69;55.87
70103;BME280;57470;50.034;15.256;2023-05-21T11:16:50;99419.28;;;27.47;59.95
70103;BME280;57470;50.034;15.256;2023-05-21T11:19:16;99421.38;;;27.45;58.29
70103;BME280;57470;50.034;15.256;2023-05-21T11:21:41;99418.94;;;27.88;58.82
70103;BME280;57470;50.034;15.256;2023-05-21T11:24:07;99418.50;;;27.84;55.53
70103;BME280;57470;50.034;15.256;2023-05-21T11:29:13;99415.53;;;27.92;57.15
70103;BME280;57470;50.034;15.256;2023-05-21T11:31:44;99407.94;;;27.94;57.89
70103;BME280;57470;50.034;15.256;2023-05-21T11:39:48;99416.59;;;28.29;55.24
70103;BME280;57470;50.034;15.256;2023-05-21T11:42:36;99413.84;;;28.61;55.84
70103;BME280;57470;50.034;15.256;2023-05-21T11:45:03;99415.41;;;28.12;54.79
70103;BME280;57470;50.034;15.256;2023-05-21T11:47:29;99416.81;;;27.83;54.35
70103;BME280;57470;50.034;15.256;2023-05-21T11:49:58;99406.06;;;27.95;55.57
70103;BME280;57470;50.034;15.256;2023-05-21T11:52:24;99410.16;;;28.49;54.95
70103;BME280;57470;50.034;15.256;2023-05-21T11:54:53;99399.59;;;28.52;55.97
70103;BME280;57470;50.034;15.256;2023-05-21T11:57:21;99402.66;;;28.37;56.51
70103;BME280;57470;50.034;15.256;2023-05-21T11:59:48;99399.91;;;28.37;56.04
70103;BME280;57470;50.034;15.256;2023-05-21T12:02:17;99395.69;;;28.66;54.21
70103;BME280;57470;50.034;15.256;2023-05-21T12:04:44;99391.50;;;28.64;53.88
70103;BME280;57470;50.034;15.256;2023-05-21T12:07:11;99386.50;;;28.61;54.76
70103;BME280;57470;50.034;15.256;2023-05-21T12:09:47;99395.75;;;28.60;55.13
70103;BME280;57470;50.034;15.256;2023-05-21T12:12:15;99394.97;;;28.53;53.19
70103;BME280;57470;50.034;15.256;2023-05-21T12:14:45;99391.06;;;28.04;53.06
70103;BME280;57470;50.034;15.256;2023-05-21T12:17:14;99384.06;;;27.77;55.14
70103;BME280;57470;50.034;15.256;2023-05-21T12:19:40;99388.34;;;28.04;53.53
70103;BME280;57470;50.034;15.256;2023-05-21T12:22:06;99388.25;;;28.24;53.03
70103;BME280;57470;50.034;15.256;2023-05-21T12:24:33;99385.28;;;28.75;52.05
70103;BME280;57470;50.034;15.256;2023-05-21T12:27:00;99384.72;;;28.10;52.09
70103;BME280;57470;50.034;15.256;2023-05-21T12:29:27;99384.03;;;28.21;53.38
70103;BME280;57470;50.034;15.256;2023-05-21T12:31:53;99382.16;;;28.15;53.70
70103;BME280;57470;50.034;15.256;2023-05-21T12:34:40;99379.19;;;27.85;54.57
70103;BME280;57470;50.034;15.256;2023-05-21T12:37:07;99380.50;;;27.76;51.37
70103;BME280;57470;50.034;15.256;2023-05-21T12:39:37;99383.19;;;27.83;53.26
70103;BME280;57470;50.034;15.256;2023-05-21T12:42:03;99382.06;;;28.60;54.45
70103;BME280;57470;50.034;15.256;2023-05-21T12:44:30;99374.97;;;28.27;52.18
70103;BME280;57470;50.034;15.256;2023-05-21T12:46:56;99382.09;;;28.85;51.97
70103;BME280;57470;50.034;15.256;2023-05-21T12:49:58;99375.88;;;28.71;49.88
70103;BME280;57470;50.034;15.256;2023-05-21T12:52:25;99375.00;;;28.21;52.12
70103;BME280;57470;50.034;15.256;2023-05-21T12:54:55;99367.28;;;27.67;52.57
70103;BME280;57470;50.034;15.256;2023-05-21T12:57:26;99369.06;;;27.54;53.51
70103;BME280;57470;50.034;15.256;2023-05-21T12:59:58;99369.97;;;27.80;53.12
70103;BME280;57470;50.034;15.256;2023-05-21T13:02:32;99372.81;;;27.98;52.24
70103;BME280;57470;50.034;15.256;2023-05-21T13:05:03;99366.19;;;27.74;55.33
70103;BME280;57470;50.034;15.256;2023-05-21T13:07:30;99369.81;;;27.68;53.48
70103;BME280;57470;50.034;15.256;2023-05-21T13:09:58;99369.72;;;27.88;55.04
70103;BME280;57470;50.034;15.256;2023-05-21T13:12:29;99368.03;;;28.50;51.67
70103;BME280;57470;50.034;15.256;2023-05-21T13:14:56;99369.63;;;28.89;51.29
70103;BME280;57470;50.034;15.256;2023-05-21T13:17:23;99360.25;;;28.78;49.96
70103;BME280;57470;50.034;15.256;2023-05-21T13:22:36;99358.22;;;28.67;50.12
70103;BME280;57470;50.034;15.256;2023-05-21T13:25:03;99355.81;;;29.38;48.73
70103;BME280;57470;50.034;15.256;2023-05-21T13:27:29;99354.97;;;28.27;52.94